createdAt,value
2023-03-05T00:02:10.324Z,5.75
2023-03-05T00:05:11.769Z,5.70
2023-03-05T00:07:40.691Z,5.74
2023-03-05T00:14:33.003Z,5.77
2023-03-05T00:16:46.905Z,5.80
2023-03-05T00:19:51.649Z,5.85
2023-03-05T00:22:42.533Z,5.85
2023-03-05T00:25:23.934Z,5.88
2023-03-05T00:27:51.373Z,5.81
2023-03-05T00:30:19.022Z,5.84
2023-03-05T00:32:59.856Z,5.88
2023-03-05T00:36:39.172Z,5.90
2023-03-05T00:43:14.343Z,5.87
2023-03-05T00:45:46.794Z,5.85
2023-03-05T00:51:02.931Z,5.89
2023-03-05T00:53:35.034Z,5.89
2023-03-05T00:56:03.598Z,5.84
2023-03-05T00:58:31.961Z,5.89
2023-03-05T01:01:01.920Z,5.87
2023-03-05T01:03:32.299Z,5.90
2023-03-05T01:06:04.488Z,5.84
2023-03-05T01:08:48.334Z,5.76
2023-03-05T01:11:16.797Z,5.84
2023-03-05T01:13:58.089Z,5.82
2023-03-05T01:16:44.497Z,5.66
2023-03-05T01:19:14.579Z,5.74
2023-03-05T01:21:52.309Z,5.70
2023-03-05T01:24:20.976Z,5.78
2023-03-05T01:27:03.923Z,5.77
2023-03-05T01:29:33.888Z,5.80
2023-03-05T01:32:05.373Z,5.88
2023-03-05T01:34:43.653Z,5.88
2023-03-05T01:37:14.439Z,5.83
2023-03-05T01:39:43.887Z,5.85
2023-03-05T01:42:28.963Z,5.88
2023-03-05T01:45:14.340Z,5.93
2023-03-05T01:47:47.899Z,5.94
2023-03-05T01:50:52.352Z,5.96
2023-03-05T01:53:21.750Z,5.90
2023-03-05T01:55:55.998Z,5.91
2023-03-05T01:58:36.237Z,5.95
2023-03-05T02:01:05.269Z,5.94
2023-03-05T02:03:35.033Z,5.93
2023-03-05T02:06:04.175Z,5.91
2023-03-05T02:08:32.673Z,5.92
2023-03-05T02:11:00.629Z,5.93
2023-03-05T02:13:33.636Z,5.91
2023-03-05T02:16:02.652Z,5.96
2023-03-05T02:18:32.197Z,6.07
2023-03-05T02:21:06.459Z,6.02
2023-03-05T02:23:37.634Z,5.97
2023-03-05T02:26:11.622Z,5.97
2023-03-05T02:28:52.644Z,5.96
2023-03-05T02:31:25.627Z,5.94
2023-03-05T02:33:59.495Z,5.88
2023-03-05T02:36:32.121Z,5.99
2023-03-05T02:39:01.984Z,5.97
2023-03-05T02:41:48.940Z,5.95
2023-03-05T02:44:17.258Z,5.98
2023-03-05T02:46:45.785Z,5.94
2023-03-05T02:49:24.912Z,5.95
2023-03-05T02:51:56.192Z,5.90
2023-03-05T02:54:23.491Z,5.93
2023-03-05T02:56:52.073Z,5.93
2023-03-05T02:59:20.559Z,6.03
2023-03-05T03:01:52.604Z,6.02
2023-03-05T03:04:21.905Z,6.03
2023-03-05T03:07:00.302Z,6.08
2023-03-05T03:09:29.260Z,6.02
2023-03-05T03:11:57.340Z,5.97
2023-03-05T03:14:26.547Z,6.04
2023-03-05T03:16:55.120Z,6.01
2023-03-05T03:19:23.804Z,5.96
2023-03-05T03:21:52.306Z,5.98
2023-03-05T03:24:23.243Z,5.98
2023-03-05T03:26:52.261Z,5.95
2023-03-05T03:29:23.460Z,5.97
2023-03-05T03:31:52.578Z,5.97
2023-03-05T03:34:27.608Z,6.00
2023-03-05T03:36:57.413Z,5.93
2023-03-05T03:39:26.026Z,5.93
2023-03-05T03:41:55.380Z,5.92
2023-03-05T03:44:34.000Z,5.94
2023-03-05T03:47:12.253Z,5.91
2023-03-05T03:49:41.817Z,5.94
2023-03-05T03:52:10.363Z,5.94
2023-03-05T03:54:38.990Z,5.98
2023-03-05T03:57:10.193Z,5.98
2023-03-05T03:59:39.754Z,5.96
2023-03-05T04:02:08.812Z,6.01
2023-03-05T04:07:20.415Z,5.94
2023-03-05T04:09:53.279Z,5.85
2023-03-05T04:12:27.281Z,5.87
2023-03-05T04:15:18.723Z,5.78
2023-03-05T04:17:52.029Z,5.83
2023-03-05T04:20:19.201Z,5.79
2023-03-05T04:23:00.808Z,5.73
2023-03-05T04:25:35.919Z,5.74
2023-03-05T04:28:24.365Z,5.74
2023-03-05T04:30:55.688Z,5.75
2023-03-05T04:33:22.689Z,5.76
2023-03-05T04:35:50.124Z,5.75
2023-03-05T04:38:17.278Z,5.77
2023-03-05T04:40:45.350Z,5.81
2023-03-05T04:43:16.391Z,5.75
2023-03-05T04:45:44.829Z,5.76
2023-03-05T04:48:14.964Z,5.72
2023-03-05T04:50:45.035Z,5.76
2023-03-05T04:53:12.222Z,5.70
2023-03-05T04:55:40.062Z,5.69
2023-03-05T04:58:07.096Z,5.77
2023-03-05T05:00:34.421Z,5.68
2023-03-05T05:03:01.360Z,5.66
2023-03-05T05:05:29.055Z,5.75
2023-03-05T05:08:02.206Z,5.73
2023-03-05T05:10:31.774Z,5.66
2023-03-05T05:13:00.899Z,5.63
2023-03-05T05:15:28.421Z,5.65
2023-03-05T05:17:55.490Z,5.67
2023-03-05T05:20:23.471Z,5.68
2023-03-05T05:22:51.025Z,5.70
2023-03-05T05:25:17.954Z,5.67
2023-03-05T05:27:55.158Z,5.77
2023-03-05T05:30:35.548Z,5.74
2023-03-05T05:33:06.691Z,5.78
2023-03-05T05:42:46.350Z,5.88
2023-03-05T05:45:53.302Z,5.92
2023-03-05T05:46:14.187Z,5.85
2023-03-05T05:48:53.239Z,5.94
2023-03-05T05:55:29.544Z,6.02
2023-03-05T05:58:00.072Z,6.02
2023-03-05T06:00:31.060Z,6.12
2023-03-05T06:02:59.468Z,6.16
2023-03-05T06:05:49.170Z,6.19
2023-03-05T06:11:27.496Z,6.33
2023-03-05T06:14:02.280Z,6.34
2023-03-05T06:16:43.400Z,6.44
2023-03-05T06:23:09.506Z,6.62
2023-03-05T06:25:41.458Z,6.67
2023-03-05T06:28:12.168Z,6.69
2023-03-05T06:30:52.181Z,6.75
2023-03-05T06:38:08.079Z,6.90
2023-03-05T06:41:09.592Z,7.05
2023-03-05T06:41:36.527Z,6.84
2023-03-05T06:50:31.994Z,7.22
2023-03-05T06:56:35.778Z,7.38
2023-03-05T06:59:13.556Z,7.48
2023-03-05T07:01:48.780Z,7.62
2023-03-05T07:05:01.184Z,7.78
2023-03-05T07:07:43.543Z,7.89
2023-03-05T07:10:11.490Z,7.94
2023-03-05T07:12:50.049Z,8.02
2023-03-05T07:18:19.869Z,8.03
2023-03-05T07:20:53.983Z,8.00
2023-03-05T07:23:28.742Z,8.17
2023-03-05T07:25:55.950Z,8.08
2023-03-05T07:28:28.192Z,8.16
2023-03-05T07:31:07.340Z,8.24
2023-03-05T07:33:37.912Z,8.35
2023-03-05T07:36:17.797Z,8.49
2023-03-05T07:38:45.586Z,8.51
2023-03-05T07:41:47.051Z,8.55
2023-03-05T07:44:20.226Z,8.57
2023-03-05T07:47:14.715Z,8.85
2023-03-05T07:50:08.363Z,9.25
2023-03-05T07:52:35.488Z,9.36
2023-03-05T07:55:02.909Z,9.59
2023-03-05T08:00:48.738Z,9.90
2023-03-05T08:03:20.333Z,9.89
2023-03-05T08:06:15.404Z,9.77
2023-03-05T08:12:15.597Z,9.89
2023-03-05T08:14:42.498Z,9.99
2023-03-05T08:17:27.423Z,10.07
2023-03-05T08:20:07.860Z,10.18
2023-03-05T08:23:08.539Z,10.07
2023-03-05T08:25:36.996Z,10.10
2023-03-05T08:28:21.900Z,10.14
2023-03-05T08:43:36.826Z,9.73
2023-03-05T08:47:54.054Z,9.51
2023-03-05T08:50:27.125Z,9.45
2023-03-05T08:52:53.866Z,9.55
2023-03-05T08:55:20.743Z,9.86
2023-03-05T08:57:54.937Z,10.15
2023-03-05T09:00:22.505Z,10.32
2023-03-05T09:07:04.817Z,10.55
2023-03-05T09:09:33.038Z,10.50
2023-03-05T09:12:01.185Z,10.53
2023-03-05T09:16:07.703Z,10.50
2023-03-05T09:17:23.004Z,10.50
2023-03-05T09:19:50.530Z,10.53
2023-03-05T09:22:17.413Z,10.50
2023-03-05T09:24:47.960Z,10.43
2023-03-05T09:27:14.898Z,10.58
2023-03-05T09:29:43.157Z,10.78
2023-03-05T09:32:10.742Z,10.64
2023-03-05T09:34:38.317Z,10.64
2023-03-05T09:37:09.624Z,10.66
2023-03-05T09:39:39.429Z,10.68
2023-03-05T09:42:30.285Z,10.69
2023-03-05T09:45:06.078Z,10.74
2023-03-05T09:48:13.139Z,10.89
2023-03-05T09:50:48.350Z,10.78
2023-03-05T09:53:45.329Z,10.75
2023-03-05T09:56:26.234Z,10.88
2023-03-05T09:58:58.679Z,11.18
2023-03-05T10:01:42.216Z,11.44
2023-03-05T10:04:25.902Z,11.64
2023-03-05T10:07:08.899Z,11.65
2023-03-05T10:09:48.931Z,11.73
2023-03-05T10:12:24.844Z,11.98
2023-03-05T10:14:52.962Z,12.09
2023-03-05T10:17:55.103Z,12.19
2023-03-05T10:20:47.408Z,12.04
2023-03-05T10:23:27.712Z,12.03
2023-03-05T10:25:59.717Z,11.90
2023-03-05T10:28:57.829Z,11.69
2023-03-05T10:31:42.073Z,11.61
2023-03-05T10:34:35.205Z,11.65
2023-03-05T10:37:36.457Z,11.52
2023-03-05T10:40:14.119Z,11.55
2023-03-05T10:43:07.546Z,11.53
2023-03-05T10:45:40.669Z,11.52
2023-03-05T10:48:25.346Z,11.51
2023-03-05T10:51:19.077Z,11.31
2023-03-05T10:54:10.761Z,11.31
2023-03-05T10:56:45.581Z,11.20
2023-03-05T10:59:12.969Z,11.14
2023-03-05T11:01:40.052Z,11.14
2023-03-05T11:04:25.246Z,11.37
2023-03-05T11:06:52.452Z,11.58
2023-03-05T11:09:33.064Z,11.93
2023-03-05T11:12:11.792Z,12.01
2023-03-05T11:14:42.467Z,12.02
2023-03-05T11:17:30.290Z,11.99
2023-03-05T11:20:38.593Z,11.66
2023-03-05T11:23:15.540Z,11.46
2023-03-05T11:26:19.840Z,11.44
2023-03-05T11:28:56.442Z,11.39
2023-03-05T11:31:28.631Z,11.54
2023-03-05T11:34:04.484Z,11.78
2023-03-05T11:36:40.345Z,11.93
2023-03-05T11:39:10.228Z,11.94
2023-03-05T11:41:53.022Z,11.66
2023-03-05T11:44:35.841Z,11.54
2023-03-05T11:47:24.282Z,11.47
2023-03-05T11:49:58.105Z,11.67
2023-03-05T11:52:28.328Z,11.85
2023-03-05T11:55:17.888Z,11.72
2023-03-05T11:57:53.966Z,11.54
2023-03-05T12:00:30.187Z,11.46
2023-03-05T12:03:04.877Z,11.47
2023-03-05T12:05:43.392Z,11.61
2023-03-05T12:09:05.399Z,11.81
2023-03-05T12:11:27.657Z,11.46
2023-03-05T12:14:23.735Z,11.31
2023-03-05T12:16:58.859Z,11.29
2023-03-05T12:19:44.124Z,11.49
2023-03-05T12:26:06.061Z,11.69
2023-03-05T12:28:35.889Z,11.82
2023-03-05T12:31:32.485Z,12.05
2023-03-05T12:34:00.042Z,12.22
2023-03-05T12:36:34.874Z,12.14
2023-03-05T12:40:11.597Z,12.15
2023-03-05T12:42:38.227Z,12.11
2023-03-05T12:45:54.320Z,11.89
2023-03-05T12:48:30.667Z,11.66
2023-03-05T12:51:06.985Z,11.55
2023-03-05T12:53:33.996Z,11.57
2023-03-05T12:56:41.457Z,11.45
2023-03-05T12:59:37.343Z,11.51
2023-03-05T13:02:19.635Z,11.27
2023-03-05T13:04:47.360Z,11.22
2023-03-05T13:08:00.383Z,11.42
2023-03-05T13:10:29.397Z,11.46
2023-03-05T13:12:58.589Z,11.50
2023-03-05T13:15:26.462Z,11.42
2023-03-05T13:18:10.066Z,11.58
2023-03-05T13:24:06.262Z,11.41
2023-03-05T13:26:42.365Z,11.46
2023-03-05T13:29:13.478Z,11.45
2023-03-05T13:31:46.902Z,11.28
2023-03-05T13:34:46.097Z,11.15
2023-03-05T13:37:20.640Z,11.23
2023-03-05T13:39:55.842Z,11.34
2023-03-05T13:42:30.114Z,11.44
2023-03-05T13:45:18.344Z,11.57
2023-03-05T13:47:58.418Z,11.62
2023-03-05T13:50:27.447Z,11.64
2023-03-05T13:52:56.222Z,11.40
2023-03-05T13:55:24.947Z,11.42
2023-03-05T13:57:55.738Z,11.40
2023-03-05T14:00:31.570Z,11.30
2023-03-05T14:03:55.195Z,11.28
2023-03-05T14:06:25.047Z,11.23
2023-03-05T14:08:59.370Z,11.18
2023-03-05T14:11:27.028Z,11.23
2023-03-05T14:14:22.825Z,11.17
2023-03-05T14:16:50.582Z,11.11
2023-03-05T14:19:47.963Z,11.16
2023-03-05T14:22:35.991Z,11.16
2023-03-05T14:25:04.165Z,11.05
2023-03-05T14:27:41.642Z,11.04
2023-03-05T14:30:28.133Z,11.08
2023-03-05T14:32:56.159Z,11.04
2023-03-05T14:35:27.186Z,11.06
2023-03-05T14:38:00.477Z,11.14
2023-03-05T14:40:35.878Z,11.09
2023-03-05T14:43:07.442Z,10.96
2023-03-05T14:45:47.541Z,10.91
2023-03-05T14:48:20.868Z,10.90
2023-03-05T14:50:52.246Z,10.64
2023-03-05T14:53:32.022Z,10.54
2023-03-05T14:59:06.499Z,11.32
2023-03-05T15:01:37.842Z,11.73
2023-03-05T15:04:17.779Z,12.15
2023-03-05T15:06:50.742Z,12.55
2023-03-05T15:09:24.019Z,12.34
2023-03-05T15:11:51.546Z,12.33
2023-03-05T15:14:22.723Z,12.30
2023-03-05T15:16:50.473Z,11.90
2023-03-05T15:19:27.035Z,11.44
2023-03-05T15:21:55.639Z,11.09
2023-03-05T15:24:22.621Z,10.76
2023-03-05T15:26:53.036Z,10.58
2023-03-05T15:29:20.236Z,10.29
2023-03-05T15:31:47.604Z,10.08
2023-03-05T15:34:15.066Z,9.94
2023-03-05T15:36:42.946Z,9.77
2023-03-05T15:39:17.405Z,9.65
2023-03-05T15:41:48.208Z,9.54
2023-03-05T15:44:15.512Z,9.51
2023-03-05T15:46:45.679Z,9.29
2023-03-05T15:49:13.896Z,9.12
2023-03-05T15:51:41.063Z,9.10
2023-03-05T15:54:08.523Z,8.98
2023-03-05T15:56:35.518Z,8.88
2023-03-05T15:59:45.209Z,8.77
2023-03-05T16:02:15.590Z,8.64
2023-03-05T16:04:47.817Z,8.55
2023-03-05T16:07:20.315Z,8.45
2023-03-05T16:09:51.878Z,8.33
2023-03-05T16:12:24.012Z,8.28
2023-03-05T16:14:52.104Z,8.19
2023-03-05T16:17:22.428Z,8.04
2023-03-05T16:19:54.187Z,7.91
2023-03-05T16:30:35.920Z,7.20
2023-03-05T16:36:36.892Z,6.73
2023-03-05T16:39:05.334Z,6.62
2023-03-05T16:41:43.487Z,6.49
2023-03-05T16:53:57.946Z,5.94
2023-03-05T16:56:42.221Z,5.85
2023-03-05T17:02:51.560Z,5.69
2023-03-05T17:13:18.677Z,5.34
2023-03-05T17:16:35.649Z,5.29
2023-03-05T17:19:21.990Z,5.13
2023-03-05T17:32:24.244Z,4.54
2023-03-05T17:35:47.485Z,4.47
2023-03-05T17:38:16.753Z,4.43
2023-03-05T17:41:16.324Z,4.40
2023-03-05T17:43:43.928Z,4.37
2023-03-05T17:46:18.838Z,4.40
2023-03-05T17:48:46.357Z,4.45
2023-03-05T17:54:09.053Z,4.45
2023-03-05T17:56:39.998Z,4.44
2023-03-05T17:59:07.584Z,4.45
2023-03-05T18:01:35.121Z,4.47
2023-03-05T18:04:44.613Z,4.47
2023-03-05T18:07:11.916Z,4.49
2023-03-05T18:10:14.645Z,4.54
2023-03-05T18:12:48.532Z,4.52
2023-03-05T18:15:38.108Z,4.41
2023-03-05T18:18:11.097Z,4.44
2023-03-05T18:20:42.535Z,4.37
2023-03-05T18:23:16.101Z,4.40
2023-03-05T18:25:44.947Z,4.38
2023-03-05T18:28:14.188Z,4.31
2023-03-05T18:30:43.732Z,4.28
2023-03-05T18:33:26.156Z,4.28
2023-03-05T18:35:54.922Z,4.23
2023-03-05T18:39:01.928Z,4.13
2023-03-05T18:42:06.465Z,4.09
2023-03-05T18:44:33.368Z,3.97
2023-03-05T18:47:04.617Z,3.93
2023-03-05T18:49:33.433Z,4.00
2023-03-05T18:52:16.427Z,3.99
2023-03-05T18:54:44.690Z,3.93
2023-03-05T19:00:46.357Z,3.97
2023-03-05T19:03:14.659Z,4.04
2023-03-05T19:05:45.867Z,4.07
2023-03-05T19:08:14.168Z,4.12
2023-03-05T19:10:45.601Z,4.20
2023-03-05T19:13:45.277Z,4.28
2023-03-05T19:16:23.066Z,4.42
2023-03-05T19:19:26.116Z,4.50
2023-03-05T19:22:01.695Z,4.54
2023-03-05T19:24:34.783Z,4.69
2023-03-05T19:27:50.070Z,4.78
2023-03-05T19:30:19.253Z,4.85
2023-03-05T19:33:09.632Z,4.89
2023-03-05T19:35:43.113Z,4.96
2023-03-05T19:38:56.402Z,4.97
2023-03-05T19:41:29.942Z,5.01
2023-03-05T19:44:11.361Z,4.96
2023-03-05T19:46:51.353Z,5.12
2023-03-05T19:49:20.391Z,5.11
2023-03-05T19:52:09.798Z,5.13
2023-03-05T19:54:43.532Z,5.13
2023-03-05T19:57:12.668Z,5.16
2023-03-05T20:02:25.645Z,5.26
2023-03-05T20:05:02.769Z,5.31
2023-03-05T20:07:32.304Z,5.35
2023-03-05T20:10:02.195Z,5.34
2023-03-05T20:12:49.427Z,5.31
2023-03-05T20:15:32.015Z,5.25
2023-03-05T20:18:04.509Z,5.26
2023-03-05T20:20:38.214Z,5.23
2023-03-05T20:23:12.577Z,5.21
2023-03-05T20:26:03.035Z,5.25
2023-03-05T20:28:45.458Z,5.25
2023-03-05T20:31:14.234Z,5.23
2023-03-05T20:33:42.644Z,5.16
2023-03-05T20:36:11.908Z,5.18
2023-03-05T20:38:58.668Z,5.16
2023-03-05T20:41:29.116Z,5.07
2023-03-05T20:43:56.327Z,5.06
2023-03-05T20:47:02.928Z,5.04
2023-03-05T20:49:32.262Z,5.00
2023-03-05T20:52:01.179Z,4.93
2023-03-05T20:54:40.346Z,4.82
2023-03-05T20:57:37.301Z,4.74
2023-03-05T21:00:12.355Z,4.55
2023-03-05T21:05:37.739Z,4.32
2023-03-05T21:08:56.331Z,4.22
2023-03-05T21:11:32.495Z,4.08
2023-03-05T21:14:01.215Z,3.97
2023-03-05T21:16:34.373Z,3.84
2023-03-05T21:19:06.651Z,3.69
2023-03-05T21:21:37.642Z,3.59
2023-03-05T21:24:09.627Z,3.56
2023-03-05T21:26:39.417Z,3.48
2023-03-05T21:29:06.473Z,3.47
2023-03-05T21:31:39.371Z,3.39
2023-03-05T21:34:06.727Z,3.30
2023-03-05T21:36:52.803Z,3.36
2023-03-05T21:39:19.735Z,3.26
2023-03-05T21:42:01.469Z,3.23
2023-03-05T21:44:46.513Z,3.00
2023-03-05T21:47:23.213Z,2.93
2023-03-05T21:50:31.802Z,2.95
2023-03-05T21:53:03.275Z,2.88
2023-03-05T21:56:19.264Z,2.85
2023-03-05T21:58:57.943Z,2.72
2023-03-05T22:01:27.376Z,2.54
2023-03-05T22:03:58.095Z,2.47
2023-03-05T22:06:38.073Z,2.50
2023-03-05T22:12:17.426Z,2.36
2023-03-05T22:14:44.259Z,2.39
2023-03-05T22:17:12.145Z,2.33
2023-03-05T22:19:51.410Z,2.26
2023-03-05T22:22:29.933Z,2.21
2023-03-05T22:25:03.642Z,2.14
2023-03-05T22:27:38.971Z,2.22
2023-03-05T22:30:09.985Z,2.09
2023-03-05T22:32:41.896Z,2.01
2023-03-05T22:35:19.802Z,1.92
2023-03-05T22:37:56.795Z,1.99
2023-03-05T22:40:28.779Z,1.84
2023-03-05T22:43:00.823Z,1.85
2023-03-05T22:45:49.965Z,1.87
2023-03-05T22:48:22.847Z,1.73
2023-03-05T22:50:56.954Z,1.67
2023-03-05T22:54:57.387Z,1.69
2023-03-05T22:56:30.495Z,1.52
2023-03-05T22:59:04.343Z,1.53
2023-03-05T23:01:38.321Z,1.45
2023-03-05T23:04:53.532Z,1.37
2023-03-05T23:07:26.508Z,1.24
2023-03-05T23:10:32.569Z,1.22
2023-03-05T23:13:21.922Z,1.22
2023-03-05T23:15:50.059Z,1.11
2023-03-05T23:18:38.899Z,0.90
2023-03-05T23:21:07.072Z,0.69
2023-03-05T23:23:38.283Z,0.82
2023-03-05T23:26:19.405Z,0.66
2023-03-05T23:29:35.257Z,0.63
2023-03-05T23:31:46.773Z,0.74
2023-03-05T23:34:19.479Z,0.76
2023-03-05T23:37:07.478Z,0.64
2023-03-05T23:39:39.515Z,0.68
2023-03-05T23:42:21.565Z,0.76
2023-03-05T23:44:49.300Z,0.71
2023-03-05T23:47:20.284Z,0.72
2023-03-05T23:49:51.334Z,0.78
2023-03-05T23:55:50.283Z,0.76
